sensor_id;sensor_type;location;lat;lon;timestamp;temperature;humidity
12446;DHT22;6287;50.984;7.022;2022-08-07T00:01:52;13.10;99.90
12446;DHT22;6287;50.984;7.022;2022-08-07T00:04:17;13.10;99.90
12446;DHT22;6287;50.984;7.022;2022-08-07T00:06:45;13.10;99.90
12446;DHT22;6287;50.984;7.022;2022-08-07T00:09:11;13.10;99.90
12446;DHT22;6287;50.984;7.022;2022-08-07T00:11:37;13.10;99.90
12446;DHT22;6287;50.984;7.022;2022-08-07T00:14:02;13.10;99.90
12446;DHT22;6287;50.984;7.022;2022-08-07T00:16:28;13.00;99.90
12446;DHT22;6287;50.984;7.022;2022-08-07T00:18:54;13.00;99.90
12446;DHT22;6287;50.984;7.022;2022-08-07T00:21:19;12.90;99.90
12446;DHT22;6287;50.984;7.022;2022-08-07T00:23:47;12.90;99.90
12446;DHT22;6287;50.984;7.022;2022-08-07T00:26:13;12.90;99.90
12446;DHT22;6287;50.984;7.022;2022-08-07T00:28:41;12.80;99.90
12446;DHT22;6287;50.984;7.022;2022-08-07T00:31:12;12.80;99.90
12446;DHT22;6287;50.984;7.022;2022-08-07T00:33:40;12.80;99.90
12446;DHT22;6287;50.984;7.022;2022-08-07T00:36:09;12.70;99.90
12446;DHT22;6287;50.984;7.022;2022-08-07T00:38:36;12.70;99.90
12446;DHT22;6287;50.984;7.022;2022-08-07T00:41:03;12.70;99.90
12446;DHT22;6287;50.984;7.022;2022-08-07T00:43:29;12.70;99.90
12446;DHT22;6287;50.984;7.022;2022-08-07T00:45:54;12.60;99.90
12446;DHT22;6287;50.984;7.022;2022-08-07T00:48:20;12.70;99.90
12446;DHT22;6287;50.984;7.022;2022-08-07T00:50:45;12.60;99.90
12446;DHT22;6287;50.984;7.022;2022-08-07T00:53:11;12.60;99.90
12446;DHT22;6287;50.984;7.022;2022-08-07T00:55:42;12.60;99.90
12446;DHT22;6287;50.984;7.022;2022-08-07T00:58:07;12.50;99.90
12446;DHT22;6287;50.984;7.022;2022-08-07T01:00:33;12.50;99.90
12446;DHT22;6287;50.984;7.022;2022-08-07T01:03:01;12.50;99.90
12446;DHT22;6287;50.984;7.022;2022-08-07T01:05:27;12.40;99.90
12446;DHT22;6287;50.984;7.022;2022-08-07T01:07:56;12.40;99.90
12446;DHT22;6287;50.984;7.022;2022-08-07T01:10:21;12.40;99.90
12446;DHT22;6287;50.984;7.022;2022-08-07T01:12:48;12.40;99.90
12446;DHT22;6287;50.984;7.022;2022-08-07T01:15:14;12.40;99.90
12446;DHT22;6287;50.984;7.022;2022-08-07T01:17:40;12.30;99.90
12446;DHT22;6287;50.984;7.022;2022-08-07T01:20:11;12.30;99.90
12446;DHT22;6287;50.984;7.022;2022-08-07T01:22:38;12.20;99.90
12446;DHT22;6287;50.984;7.022;2022-08-07T01:25:08;12.30;99.90
12446;DHT22;6287;50.984;7.022;2022-08-07T01:27:36;12.20;99.90
12446;DHT22;6287;50.984;7.022;2022-08-07T01:30:05;12.20;99.90
12446;DHT22;6287;50.984;7.022;2022-08-07T01:32:31;12.20;99.90
12446;DHT22;6287;50.984;7.022;2022-08-07T01:34:57;12.20;99.90
12446;DHT22;6287;50.984;7.022;2022-08-07T01:37:23;12.20;99.90
12446;DHT22;6287;50.984;7.022;2022-08-07T01:39:49;12.20;99.90
12446;DHT22;6287;50.984;7.022;2022-08-07T01:42:15;12.20;99.90
12446;DHT22;6287;50.984;7.022;2022-08-07T01:44:43;12.10;99.90
12446;DHT22;6287;50.984;7.022;2022-08-07T01:47:09;12.10;99.90
12446;DHT22;6287;50.984;7.022;2022-08-07T01:49:36;12.10;99.90
12446;DHT22;6287;50.984;7.022;2022-08-07T01:52:05;12.10;99.90
12446;DHT22;6287;50.984;7.022;2022-08-07T01:54:38;12.00;99.90
12446;DHT22;6287;50.984;7.022;2022-08-07T01:57:12;12.00;99.90
12446;DHT22;6287;50.984;7.022;2022-08-07T01:59:53;12.00;99.90
12446;DHT22;6287;50.984;7.022;2022-08-07T02:02:52;11.90;99.90
12446;DHT22;6287;50.984;7.022;2022-08-07T02:05:33;11.90;99.90
12446;DHT22;6287;50.984;7.022;2022-08-07T02:08:06;11.80;99.90
12446;DHT22;6287;50.984;7.022;2022-08-07T02:10:35;11.80;99.90
12446;DHT22;6287;50.984;7.022;2022-08-07T02:13:04;11.80;99.90
12446;DHT22;6287;50.984;7.022;2022-08-07T02:15:32;11.80;99.90
12446;DHT22;6287;50.984;7.022;2022-08-07T02:18:00;11.80;99.90
12446;DHT22;6287;50.984;7.022;2022-08-07T02:20:29;11.80;99.90
12446;DHT22;6287;50.984;7.022;2022-08-07T02:23:01;11.70;99.90
12446;DHT22;6287;50.984;7.022;2022-08-07T02:25:29;11.70;99.90
12446;DHT22;6287;50.984;7.022;2022-08-07T02:27:57;11.70;99.90
12446;DHT22;6287;50.984;7.022;2022-08-07T02:30:24;11.70;99.90
12446;DHT22;6287;50.984;7.022;2022-08-07T02:32:51;11.70;99.90
12446;DHT22;6287;50.984;7.022;2022-08-07T02:35:19;11.70;99.90
12446;DHT22;6287;50.984;7.022;2022-08-07T02:37:47;11.70;99.90
12446;DHT22;6287;50.984;7.022;2022-08-07T02:40:16;11.70;99.90
12446;DHT22;6287;50.984;7.022;2022-08-07T02:42:42;11.60;99.90
12446;DHT22;6287;50.984;7.022;2022-08-07T02:45:14;11.60;99.90
12446;DHT22;6287;50.984;7.022;2022-08-07T02:47:45;11.50;99.90
12446;DHT22;6287;50.984;7.022;2022-08-07T02:50:14;11.50;99.90
12446;DHT22;6287;50.984;7.022;2022-08-07T02:52:52;11.50;99.90
12446;DHT22;6287;50.984;7.022;2022-08-07T02:55:22;11.40;99.90
12446;DHT22;6287;50.984;7.022;2022-08-07T02:57:54;11.40;99.90
12446;DHT22;6287;50.984;7.022;2022-08-07T03:00:25;11.40;99.90
12446;DHT22;6287;50.984;7.022;2022-08-07T03:02:52;11.30;99.90
12446;DHT22;6287;50.984;7.022;2022-08-07T03:05:21;11.30;99.90
12446;DHT22;6287;50.984;7.022;2022-08-07T03:07:51;11.30;99.90
12446;DHT22;6287;50.984;7.022;2022-08-07T03:10:21;11.30;99.90
12446;DHT22;6287;50.984;7.022;2022-08-07T03:12:47;11.20;99.90
12446;DHT22;6287;50.984;7.022;2022-08-07T03:15:13;11.20;99.90
12446;DHT22;6287;50.984;7.022;2022-08-07T03:17:41;11.20;99.90
12446;DHT22;6287;50.984;7.022;2022-08-07T03:20:10;11.20;99.90
12446;DHT22;6287;50.984;7.022;2022-08-07T03:22:40;11.20;99.90
12446;DHT22;6287;50.984;7.022;2022-08-07T03:25:07;11.10;99.90
12446;DHT22;6287;50.984;7.022;2022-08-07T03:27:33;11.10;99.90
12446;DHT22;6287;50.984;7.022;2022-08-07T03:30:01;11.00;99.90
12446;DHT22;6287;50.984;7.022;2022-08-07T03:32:38;11.00;99.90
12446;DHT22;6287;50.984;7.022;2022-08-07T03:35:07;11.00;99.90
12446;DHT22;6287;50.984;7.022;2022-08-07T03:37:38;11.10;99.90
12446;DHT22;6287;50.984;7.022;2022-08-07T03:40:05;11.10;99.90
12446;DHT22;6287;50.984;7.022;2022-08-07T03:42:34;11.00;99.90
12446;DHT22;6287;50.984;7.022;2022-08-07T03:45:03;11.00;99.90
12446;DHT22;6287;50.984;7.022;2022-08-07T03:47:31;11.00;99.90
12446;DHT22;6287;50.984;7.022;2022-08-07T03:49:59;11.00;99.90
12446;DHT22;6287;50.984;7.022;2022-08-07T03:52:27;10.90;99.90
12446;DHT22;6287;50.984;7.022;2022-08-07T03:55:00;11.00;99.90
12446;DHT22;6287;50.984;7.022;2022-08-07T03:57:29;10.90;99.90
12446;DHT22;6287;50.984;7.022;2022-08-07T03:59:56;10.90;99.90
12446;DHT22;6287;50.984;7.022;2022-08-07T04:02:25;10.90;99.90
12446;DHT22;6287;50.984;7.022;2022-08-07T04:04:51;10.80;99.90
12446;DHT22;6287;50.984;7.022;2022-08-07T04:07:18;10.80;99.90
12446;DHT22;6287;50.984;7.022;2022-08-07T04:09:47;10.80;99.90
12446;DHT22;6287;50.984;7.022;2022-08-07T04:12:13;10.80;99.90
12446;DHT22;6287;50.984;7.022;2022-08-07T04:14:40;10.80;99.90
12446;DHT22;6287;50.984;7.022;2022-08-07T04:17:06;10.80;99.90
12446;DHT22;6287;50.984;7.022;2022-08-07T04:19:32;10.90;99.90
12446;DHT22;6287;50.984;7.022;2022-08-07T04:21:58;10.80;99.90
12446;DHT22;6287;50.984;7.022;2022-08-07T04:24:25;10.90;99.90
12446;DHT22;6287;50.984;7.022;2022-08-07T04:26:53;10.90;99.90
12446;DHT22;6287;50.984;7.022;2022-08-07T04:29:19;10.80;99.90
12446;DHT22;6287;50.984;7.022;2022-08-07T04:31:48;10.80;99.90
12446;DHT22;6287;50.984;7.022;2022-08-07T04:34:17;10.80;99.90
12446;DHT22;6287;50.984;7.022;2022-08-07T04:36:45;10.90;99.90
12446;DHT22;6287;50.984;7.022;2022-08-07T04:39:11;10.90;99.90
12446;DHT22;6287;50.984;7.022;2022-08-07T04:41:39;10.90;99.90
12446;DHT22;6287;50.984;7.022;2022-08-07T04:44:05;10.90;99.90
12446;DHT22;6287;50.984;7.022;2022-08-07T04:46:51;10.90;99.90
12446;DHT22;6287;50.984;7.022;2022-08-07T04:49:54;11.00;99.90
12446;DHT22;6287;50.984;7.022;2022-08-07T04:55:47;11.10;99.90
12446;DHT22;6287;50.984;7.022;2022-08-07T05:01:20;11.20;99.90
12446;DHT22;6287;50.984;7.022;2022-08-07T05:09:41;11.30;99.90
12446;DHT22;6287;50.984;7.022;2022-08-07T05:12:18;11.40;99.90
12446;DHT22;6287;50.984;7.022;2022-08-07T05:14:45;11.40;99.90
12446;DHT22;6287;50.984;7.022;2022-08-07T05:17:17;11.50;99.90
12446;DHT22;6287;50.984;7.022;2022-08-07T05:19:50;11.60;99.90
12446;DHT22;6287;50.984;7.022;2022-08-07T05:22:19;11.70;99.90
12446;DHT22;6287;50.984;7.022;2022-08-07T05:24:48;11.70;99.90
12446;DHT22;6287;50.984;7.022;2022-08-07T05:27:19;11.80;99.90
12446;DHT22;6287;50.984;7.022;2022-08-07T05:29:46;11.90;99.90
12446;DHT22;6287;50.984;7.022;2022-08-07T05:32:17;12.10;99.90
12446;DHT22;6287;50.984;7.022;2022-08-07T05:34:46;12.00;99.90
12446;DHT22;6287;50.984;7.022;2022-08-07T05:37:14;12.20;99.90
12446;DHT22;6287;50.984;7.022;2022-08-07T05:39:43;12.30;99.90
12446;DHT22;6287;50.984;7.022;2022-08-07T05:42:13;12.40;99.90
12446;DHT22;6287;50.984;7.022;2022-08-07T05:44:39;12.50;99.90
12446;DHT22;6287;50.984;7.022;2022-08-07T05:47:05;12.60;99.90
12446;DHT22;6287;50.984;7.022;2022-08-07T05:49:35;12.70;99.90
12446;DHT22;6287;50.984;7.022;2022-08-07T05:52:02;12.80;99.90
12446;DHT22;6287;50.984;7.022;2022-08-07T05:54:28;12.90;99.90
12446;DHT22;6287;50.984;7.022;2022-08-07T05:56:55;13.00;99.90
12446;DHT22;6287;50.984;7.022;2022-08-07T05:59:22;13.20;99.90
12446;DHT22;6287;50.984;7.022;2022-08-07T06:01:49;13.30;99.90
12446;DHT22;6287;50.984;7.022;2022-08-07T06:04:18;13.40;99.90
12446;DHT22;6287;50.984;7.022;2022-08-07T06:06:46;13.60;99.90
12446;DHT22;6287;50.984;7.022;2022-08-07T06:09:14;13.80;99.90
12446;DHT22;6287;50.984;7.022;2022-08-07T06:11:42;13.90;99.90
12446;DHT22;6287;50.984;7.022;2022-08-07T06:14:11;14.00;99.90
12446;DHT22;6287;50.984;7.022;2022-08-07T06:16:37;14.20;99.90
12446;DHT22;6287;50.984;7.022;2022-08-07T06:19:04;14.30;99.90
12446;DHT22;6287;50.984;7.022;2022-08-07T06:21:30;14.40;99.90
12446;DHT22;6287;50.984;7.022;2022-08-07T06:24:00;14.60;99.90
12446;DHT22;6287;50.984;7.022;2022-08-07T06:26:26;14.70;99.90
12446;DHT22;6287;50.984;7.022;2022-08-07T06:28:53;14.90;99.90
12446;DHT22;6287;50.984;7.022;2022-08-07T06:31:19;15.00;99.90
12446;DHT22;6287;50.984;7.022;2022-08-07T06:33:48;15.20;99.90
12446;DHT22;6287;50.984;7.022;2022-08-07T06:36:14;15.30;99.90
12446;DHT22;6287;50.984;7.022;2022-08-07T06:38:43;15.40;99.90
12446;DHT22;6287;50.984;7.022;2022-08-07T06:41:20;15.60;99.90
12446;DHT22;6287;50.984;7.022;2022-08-07T06:43:50;15.80;99.90
12446;DHT22;6287;50.984;7.022;2022-08-07T06:46:17;15.90;99.90
12446;DHT22;6287;50.984;7.022;2022-08-07T06:48:42;16.00;99.90
12446;DHT22;6287;50.984;7.022;2022-08-07T06:51:15;16.20;99.90
12446;DHT22;6287;50.984;7.022;2022-08-07T06:53:45;16.30;99.90
12446;DHT22;6287;50.984;7.022;2022-08-07T06:56:13;16.40;99.90
12446;DHT22;6287;50.984;7.022;2022-08-07T06:58:40;16.60;99.90
12446;DHT22;6287;50.984;7.022;2022-08-07T07:01:09;16.80;99.90
12446;DHT22;6287;50.984;7.022;2022-08-07T07:03:39;16.90;99.90
12446;DHT22;6287;50.984;7.022;2022-08-07T07:06:09;17.00;99.90
12446;DHT22;6287;50.984;7.022;2022-08-07T07:08:37;17.20;99.90
12446;DHT22;6287;50.984;7.022;2022-08-07T07:11:05;17.40;99.90
12446;DHT22;6287;50.984;7.022;2022-08-07T07:13:38;17.60;99.70
12446;DHT22;6287;50.984;7.022;2022-08-07T07:16:11;17.70;99.90
12446;DHT22;6287;50.984;7.022;2022-08-07T07:18:53;17.90;99.90
12446;DHT22;6287;50.984;7.022;2022-08-07T07:21:26;18.20;99.70
12446;DHT22;6287;50.984;7.022;2022-08-07T07:23:56;18.30;97.70
12446;DHT22;6287;50.984;7.022;2022-08-07T07:26:23;18.40;95.90
12446;DHT22;6287;50.984;7.022;2022-08-07T07:28:58;18.50;96.70
12446;DHT22;6287;50.984;7.022;2022-08-07T07:31:32;18.60;95.60
12446;DHT22;6287;50.984;7.022;2022-08-07T07:34:05;18.90;96.60
12446;DHT22;6287;50.984;7.022;2022-08-07T07:36:32;19.00;96.30
12446;DHT22;6287;50.984;7.022;2022-08-07T07:39:02;19.30;96.30
12446;DHT22;6287;50.984;7.022;2022-08-07T07:41:32;19.40;95.10
12446;DHT22;6287;50.984;7.022;2022-08-07T07:44:02;19.50;94.90
12446;DHT22;6287;50.984;7.022;2022-08-07T07:46:33;19.70;94.80
12446;DHT22;6287;50.984;7.022;2022-08-07T07:48:59;19.90;94.70
12446;DHT22;6287;50.984;7.022;2022-08-07T07:51:30;20.10;93.70
12446;DHT22;6287;50.984;7.022;2022-08-07T07:53:59;20.30;94.20
12446;DHT22;6287;50.984;7.022;2022-08-07T07:56:27;20.60;93.70
12446;DHT22;6287;50.984;7.022;2022-08-07T07:58:58;20.80;92.70
12446;DHT22;6287;50.984;7.022;2022-08-07T08:01:25;21.00;91.60
12446;DHT22;6287;50.984;7.022;2022-08-07T08:03:53;21.20;91.30
12446;DHT22;6287;50.984;7.022;2022-08-07T08:06:21;21.30;91.60
12446;DHT22;6287;50.984;7.022;2022-08-07T08:08:48;21.30;91.30
12446;DHT22;6287;50.984;7.022;2022-08-07T08:11:15;21.50;90.70
12446;DHT22;6287;50.984;7.022;2022-08-07T08:13:47;21.70;89.80
12446;DHT22;6287;50.984;7.022;2022-08-07T08:16:18;21.80;90.00
12446;DHT22;6287;50.984;7.022;2022-08-07T08:18:45;21.90;88.20
12446;DHT22;6287;50.984;7.022;2022-08-07T08:21:14;22.10;87.90
12446;DHT22;6287;50.984;7.022;2022-08-07T08:24:03;22.20;88.00
12446;DHT22;6287;50.984;7.022;2022-08-07T08:26:50;22.50;86.20
12446;DHT22;6287;50.984;7.022;2022-08-07T08:29:39;22.70;83.60
12446;DHT22;6287;50.984;7.022;2022-08-07T08:32:09;22.70;82.70
12446;DHT22;6287;50.984;7.022;2022-08-07T08:34:37;22.80;82.50
12446;DHT22;6287;50.984;7.022;2022-08-07T08:37:05;22.80;78.60
12446;DHT22;6287;50.984;7.022;2022-08-07T08:39:32;22.70;81.50
12446;DHT22;6287;50.984;7.022;2022-08-07T08:42:03;22.70;81.00
12446;DHT22;6287;50.984;7.022;2022-08-07T08:44:52;22.90;82.30
12446;DHT22;6287;50.984;7.022;2022-08-07T08:50:21;23.20;80.40
12446;DHT22;6287;50.984;7.022;2022-08-07T08:52:56;23.50;82.50
12446;DHT22;6287;50.984;7.022;2022-08-07T08:55:34;23.80;81.90
12446;DHT22;6287;50.984;7.022;2022-08-07T09:00:53;24.50;75.20
12446;DHT22;6287;50.984;7.022;2022-08-07T09:06:20;24.70;73.50
12446;DHT22;6287;50.984;7.022;2022-08-07T09:14:15;25.10;72.90
12446;DHT22;6287;50.984;7.022;2022-08-07T09:17:14;25.30;72.00
12446;DHT22;6287;50.984;7.022;2022-08-07T09:19:58;25.50;71.30
12446;DHT22;6287;50.984;7.022;2022-08-07T09:25:43;25.80;69.40
12446;DHT22;6287;50.984;7.022;2022-08-07T09:28:26;25.90;71.10
12446;DHT22;6287;50.984;7.022;2022-08-07T09:31:19;25.90;65.30
12446;DHT22;6287;50.984;7.022;2022-08-07T09:33:56;26.00;62.80
12446;DHT22;6287;50.984;7.022;2022-08-07T09:37:03;26.00;61.60
12446;DHT22;6287;50.984;7.022;2022-08-07T09:45:55;26.40;62.90
12446;DHT22;6287;50.984;7.022;2022-08-07T09:50:55;26.90;64.30
12446;DHT22;6287;50.984;7.022;2022-08-07T09:53:25;27.10;60.50
12446;DHT22;6287;50.984;7.022;2022-08-07T10:15:59;28.50;56.50
12446;DHT22;6287;50.984;7.022;2022-08-07T10:29:46;28.60;56.80
12446;DHT22;6287;50.984;7.022;2022-08-07T10:32:32;28.60;54.10
12446;DHT22;6287;50.984;7.022;2022-08-07T10:35:43;28.60;53.10
12446;DHT22;6287;50.984;7.022;2022-08-07T10:38:47;28.50;52.20
12446;DHT22;6287;50.984;7.022;2022-08-07T10:46:24;28.80;56.40
12446;DHT22;6287;50.984;7.022;2022-08-07T10:49:01;29.10;54.30
12446;DHT22;6287;50.984;7.022;2022-08-07T10:51:51;29.30;52.70
12446;DHT22;6287;50.984;7.022;2022-08-07T10:54:34;29.30;53.10
12446;DHT22;6287;50.984;7.022;2022-08-07T10:57:18;29.40;51.60
12446;DHT22;6287;50.984;7.022;2022-08-07T11:00:08;29.50;53.70
12446;DHT22;6287;50.984;7.022;2022-08-07T11:03:02;29.70;52.50
12446;DHT22;6287;50.984;7.022;2022-08-07T11:05:57;29.80;49.70
12446;DHT22;6287;50.984;7.022;2022-08-07T11:08:47;29.80;51.10
12446;DHT22;6287;50.984;7.022;2022-08-07T11:11:24;29.90;51.60
12446;DHT22;6287;50.984;7.022;2022-08-07T11:13:58;30.00;49.80
12446;DHT22;6287;50.984;7.022;2022-08-07T11:25:03;30.20;50.40
12446;DHT22;6287;50.984;7.022;2022-08-07T11:30:12;30.80;48.80
12446;DHT22;6287;50.984;7.022;2022-08-07T11:35:33;30.80;48.70
12446;DHT22;6287;50.984;7.022;2022-08-07T11:38:20;30.50;48.80
12446;DHT22;6287;50.984;7.022;2022-08-07T11:41:00;30.50;48.80
12446;DHT22;6287;50.984;7.022;2022-08-07T12:05:03;31.50;46.40
12446;DHT22;6287;50.984;7.022;2022-08-07T12:07:50;31.70;47.50
12446;DHT22;6287;50.984;7.022;2022-08-07T12:10:37;32.10;46.50
12446;DHT22;6287;50.984;7.022;2022-08-07T12:13:35;32.10;46.20
12446;DHT22;6287;50.984;7.022;2022-08-07T12:16:04;32.40;46.70
12446;DHT22;6287;50.984;7.022;2022-08-07T12:27:07;32.40;43.10
12446;DHT22;6287;50.984;7.022;2022-08-07T12:29:55;32.30;46.00
12446;DHT22;6287;50.984;7.022;2022-08-07T12:35:13;32.60;45.00
12446;DHT22;6287;50.984;7.022;2022-08-07T12:37:40;32.80;45.80
12446;DHT22;6287;50.984;7.022;2022-08-07T12:40:08;33.20;42.30
12446;DHT22;6287;50.984;7.022;2022-08-07T12:42:37;33.20;42.90
12446;DHT22;6287;50.984;7.022;2022-08-07T12:45:11;33.40;42.50
12446;DHT22;6287;50.984;7.022;2022-08-07T12:50:52;33.30;42.70
12446;DHT22;6287;50.984;7.022;2022-08-07T12:53:34;34.00;40.80
12446;DHT22;6287;50.984;7.022;2022-08-07T12:58:36;34.20;41.20
12446;DHT22;6287;50.984;7.022;2022-08-07T13:21:33;36.80;35.10
12446;DHT22;6287;50.984;7.022;2022-08-07T13:24:20;37.00;34.80
12446;DHT22;6287;50.984;7.022;2022-08-07T13:29:28;36.00;35.20
12446;DHT22;6287;50.984;7.022;2022-08-07T13:31:59;36.00;37.00
12446;DHT22;6287;50.984;7.022;2022-08-07T13:34:41;36.20;33.80
12446;DHT22;6287;50.984;7.022;2022-08-07T13:40:14;35.30;34.00
12446;DHT22;6287;50.984;7.022;2022-08-07T13:42:47;34.90;35.40
12446;DHT22;6287;50.984;7.022;2022-08-07T13:45:14;34.90;36.10
12446;DHT22;6287;50.984;7.022;2022-08-07T13:47:41;35.10;36.20
12446;DHT22;6287;50.984;7.022;2022-08-07T13:50:08;35.30;36.70
12446;DHT22;6287;50.984;7.022;2022-08-07T13:55:20;35.70;35.50
12446;DHT22;6287;50.984;7.022;2022-08-07T13:57:57;35.70;36.10
12446;DHT22;6287;50.984;7.022;2022-08-07T14:03:10;35.90;35.20
12446;DHT22;6287;50.984;7.022;2022-08-07T14:05:43;36.10;36.30
12446;DHT22;6287;50.984;7.022;2022-08-07T14:10:44;36.00;33.20
12446;DHT22;6287;50.984;7.022;2022-08-07T14:13:17;36.20;33.50
12446;DHT22;6287;50.984;7.022;2022-08-07T14:15:53;36.30;33.90
12446;DHT22;6287;50.984;7.022;2022-08-07T14:18:26;36.50;32.40
12446;DHT22;6287;50.984;7.022;2022-08-07T14:21:19;36.60;34.00
12446;DHT22;6287;50.984;7.022;2022-08-07T14:23:56;36.70;33.10
12446;DHT22;6287;50.984;7.022;2022-08-07T14:26:40;36.80;35.40
12446;DHT22;6287;50.984;7.022;2022-08-07T14:29:09;36.90;35.10
12446;DHT22;6287;50.984;7.022;2022-08-07T14:31:37;37.10;35.40
12446;DHT22;6287;50.984;7.022;2022-08-07T14:34:03;37.30;34.30
12446;DHT22;6287;50.984;7.022;2022-08-07T14:36:35;37.40;33.40
12446;DHT22;6287;50.984;7.022;2022-08-07T14:39:02;37.40;32.90
12446;DHT22;6287;50.984;7.022;2022-08-07T14:41:31;37.30;32.10
12446;DHT22;6287;50.984;7.022;2022-08-07T14:43:58;37.20;31.20
12446;DHT22;6287;50.984;7.022;2022-08-07T14:46:27;37.20;33.20
12446;DHT22;6287;50.984;7.022;2022-08-07T14:48:54;37.30;33.60
12446;DHT22;6287;50.984;7.022;2022-08-07T14:51:24;37.30;34.90
12446;DHT22;6287;50.984;7.022;2022-08-07T14:53:56;37.50;32.90
12446;DHT22;6287;50.984;7.022;2022-08-07T14:56:27;37.80;31.80
12446;DHT22;6287;50.984;7.022;2022-08-07T14:58:55;37.90;32.10
12446;DHT22;6287;50.984;7.022;2022-08-07T15:01:29;38.00;32.40
12446;DHT22;6287;50.984;7.022;2022-08-07T15:03:59;38.10;33.10
12446;DHT22;6287;50.984;7.022;2022-08-07T15:06:30;38.30;31.80
12446;DHT22;6287;50.984;7.022;2022-08-07T15:09:05;38.10;31.90
12446;DHT22;6287;50.984;7.022;2022-08-07T15:11:37;37.90;30.80
12446;DHT22;6287;50.984;7.022;2022-08-07T15:14:07;38.00;30.50
12446;DHT22;6287;50.984;7.022;2022-08-07T15:16:44;37.90;31.90
12446;DHT22;6287;50.984;7.022;2022-08-07T15:19:16;37.80;32.80
12446;DHT22;6287;50.984;7.022;2022-08-07T15:21:52;37.80;31.60
12446;DHT22;6287;50.984;7.022;2022-08-07T15:24:41;37.70;30.50
12446;DHT22;6287;50.984;7.022;2022-08-07T15:27:14;37.80;32.30
12446;DHT22;6287;50.984;7.022;2022-08-07T15:29:44;37.80;32.50
12446;DHT22;6287;50.984;7.022;2022-08-07T15:32:13;37.80;32.00
12446;DHT22;6287;50.984;7.022;2022-08-07T15:34:53;37.80;30.00
12446;DHT22;6287;50.984;7.022;2022-08-07T15:37:24;37.80;30.00
12446;DHT22;6287;50.984;7.022;2022-08-07T15:39:57;37.70;30.40
12446;DHT22;6287;50.984;7.022;2022-08-07T15:45:06;37.70;30.40
12446;DHT22;6287;50.984;7.022;2022-08-07T15:47:38;37.70;31.20
12446;DHT22;6287;50.984;7.022;2022-08-07T15:50:13;37.60;32.10
12446;DHT22;6287;50.984;7.022;2022-08-07T15:52:43;37.50;31.70
12446;DHT22;6287;50.984;7.022;2022-08-07T15:55:13;37.50;31.10
12446;DHT22;6287;50.984;7.022;2022-08-07T15:57:46;37.50;30.20
12446;DHT22;6287;50.984;7.022;2022-08-07T16:00:16;37.30;31.30
12446;DHT22;6287;50.984;7.022;2022-08-07T16:02:48;36.90;32.00
12446;DHT22;6287;50.984;7.022;2022-08-07T16:05:23;36.20;32.00
12446;DHT22;6287;50.984;7.022;2022-08-07T16:07:55;36.00;31.70
12446;DHT22;6287;50.984;7.022;2022-08-07T16:10:24;35.70;32.40
12446;DHT22;6287;50.984;7.022;2022-08-07T16:45:22;31.00;37.70
12446;DHT22;6287;50.984;7.022;2022-08-07T16:59:51;30.30;39.10
12446;DHT22;6287;50.984;7.022;2022-08-07T17:21:25;28.20;41.10
12446;DHT22;6287;50.984;7.022;2022-08-07T17:30:00;27.40;42.80
12446;DHT22;6287;50.984;7.022;2022-08-07T17:32:51;27.00;42.80
12446;DHT22;6287;50.984;7.022;2022-08-07T17:35:19;27.00;43.10
12446;DHT22;6287;50.984;7.022;2022-08-07T17:38:01;26.80;42.80
12446;DHT22;6287;50.984;7.022;2022-08-07T17:43:12;26.50;42.80
12446;DHT22;6287;50.984;7.022;2022-08-07T17:45:42;26.40;43.90
12446;DHT22;6287;50.984;7.022;2022-08-07T17:51:08;26.20;44.30
12446;DHT22;6287;50.984;7.022;2022-08-07T17:53:59;26.00;43.90
12446;DHT22;6287;50.984;7.022;2022-08-07T17:57:00;26.00;44.60
12446;DHT22;6287;50.984;7.022;2022-08-07T17:59:31;25.90;44.10
12446;DHT22;6287;50.984;7.022;2022-08-07T18:04:52;25.70;44.90
12446;DHT22;6287;50.984;7.022;2022-08-07T18:09:51;25.50;44.80
12446;DHT22;6287;50.984;7.022;2022-08-07T18:17:51;25.10;44.80
12446;DHT22;6287;50.984;7.022;2022-08-07T18:20:25;25.10;45.10
12446;DHT22;6287;50.984;7.022;2022-08-07T18:22:57;25.00;45.30
12446;DHT22;6287;50.984;7.022;2022-08-07T18:25:37;24.90;46.10
12446;DHT22;6287;50.984;7.022;2022-08-07T18:28:18;24.80;46.10
12446;DHT22;6287;50.984;7.022;2022-08-07T18:31:41;24.70;46.10
12446;DHT22;6287;50.984;7.022;2022-08-07T18:42:24;24.30;47.40
12446;DHT22;6287;50.984;7.022;2022-08-07T18:45:22;24.20;47.50
12446;DHT22;6287;50.984;7.022;2022-08-07T18:47:58;24.10;47.90
12446;DHT22;6287;50.984;7.022;2022-08-07T18:50:56;24.00;48.60
12446;DHT22;6287;50.984;7.022;2022-08-07T18:53:41;23.80;49.20
12446;DHT22;6287;50.984;7.022;2022-08-07T18:56:17;23.60;49.40
12446;DHT22;6287;50.984;7.022;2022-08-07T19:01:47;23.40;50.10
12446;DHT22;6287;50.984;7.022;2022-08-07T19:07:08;23.30;51.00
12446;DHT22;6287;50.984;7.022;2022-08-07T19:09:45;23.10;51.30
12446;DHT22;6287;50.984;7.022;2022-08-07T19:16:03;22.90;51.20
12446;DHT22;6287;50.984;7.022;2022-08-07T19:18:44;22.70;52.30
12446;DHT22;6287;50.984;7.022;2022-08-07T19:21:25;22.60;52.30
12446;DHT22;6287;50.984;7.022;2022-08-07T19:23:58;22.40;52.50
12446;DHT22;6287;50.984;7.022;2022-08-07T19:26:34;22.30;52.90
12446;DHT22;6287;50.984;7.022;2022-08-07T19:29:05;22.10;53.70
12446;DHT22;6287;50.984;7.022;2022-08-07T19:31:39;22.10;54.30
12446;DHT22;6287;50.984;7.022;2022-08-07T19:34:11;21.80;54.50
12446;DHT22;6287;50.984;7.022;2022-08-07T19:36:39;21.80;55.10
12446;DHT22;6287;50.984;7.022;2022-08-07T19:39:06;21.70;55.20
12446;DHT22;6287;50.984;7.022;2022-08-07T19:41:41;21.60;56.50
12446;DHT22;6287;50.984;7.022;2022-08-07T19:44:08;21.50;57.00
12446;DHT22;6287;50.984;7.022;2022-08-07T19:46:41;21.40;57.20
12446;DHT22;6287;50.984;7.022;2022-08-07T19:49:14;21.30;57.90
12446;DHT22;6287;50.984;7.022;2022-08-07T19:51:42;21.20;58.30
12446;DHT22;6287;50.984;7.022;2022-08-07T19:54:08;21.10;58.80
12446;DHT22;6287;50.984;7.022;2022-08-07T19:56:43;21.10;59.90
12446;DHT22;6287;50.984;7.022;2022-08-07T19:59:25;21.00;60.10
12446;DHT22;6287;50.984;7.022;2022-08-07T20:01:56;21.00;61.30
12446;DHT22;6287;50.984;7.022;2022-08-07T20:04:31;20.90;61.60
12446;DHT22;6287;50.984;7.022;2022-08-07T20:06:59;20.80;62.40
12446;DHT22;6287;50.984;7.022;2022-08-07T20:09:33;20.70;63.70
12446;DHT22;6287;50.984;7.022;2022-08-07T20:12:09;20.60;63.60
12446;DHT22;6287;50.984;7.022;2022-08-07T20:14:39;20.60;64.10
12446;DHT22;6287;50.984;7.022;2022-08-07T20:17:06;20.40;65.40
12446;DHT22;6287;50.984;7.022;2022-08-07T20:19:33;20.40;66.20
12446;DHT22;6287;50.984;7.022;2022-08-07T20:22:00;20.30;66.10
12446;DHT22;6287;50.984;7.022;2022-08-07T20:24:31;20.20;66.90
12446;DHT22;6287;50.984;7.022;2022-08-07T20:27:03;20.10;67.80
12446;DHT22;6287;50.984;7.022;2022-08-07T20:29:35;20.10;68.40
12446;DHT22;6287;50.984;7.022;2022-08-07T20:32:05;20.00;70.00
12446;DHT22;6287;50.984;7.022;2022-08-07T20:34:32;19.90;70.20
12446;DHT22;6287;50.984;7.022;2022-08-07T20:36:59;19.90;70.80
12446;DHT22;6287;50.984;7.022;2022-08-07T20:39:30;19.80;71.50
12446;DHT22;6287;50.984;7.022;2022-08-07T20:41:59;19.70;71.90
12446;DHT22;6287;50.984;7.022;2022-08-07T20:44:32;19.70;73.10